Time;durP1;ratioP1;P1;durP2;ratioP2;P2;SDS_P1;SDS_P2;PMS_P1;PMS_P2;Temp;Humidity;BMP_temperature;BMP_pressure;BME280_temperature;BME280_humidity;BME280_pressure;Samples;Min_cycle;Max_cycle;Signal;HPM_P1;HPM_P2
2023/01/17 00:00:12;;;;;;;0.00;0.00;;;2.80;99.90;;;;;;5008861;28;20228;-49
2023/01/17 00:02:39;;;;;;;0.33;0.00;;;2.80;99.90;;;;;;5003162;28;20708;-48
2023/01/17 00:10:40;;;;;;;0.20;0.10;;;2.60;99.90;;;;;;5006326;28;20234;-50
2023/01/17 00:13:07;;;;;;;0.43;0.20;;;2.50;99.90;;;;;;5006982;28;20201;-48
2023/01/17 00:15:35;;;;;;;1.73;0.60;;;2.50;99.90;;;;;;5000276;28;20229;-48
2023/01/17 00:18:02;;;;;;;0.30;0.10;;;2.50;99.90;;;;;;5011033;28;20228;-48
2023/01/17 00:26:05;;;;;;;0.40;0.20;;;2.30;99.90;;;;;;5003133;28;20220;-49
2023/01/17 01:35:33;;;;;;;0.80;0.80;;;1.00;99.90;;;;;;5002082;28;20731;-47
2023/01/17 01:38:02;;;;;;;0.83;0.30;;;1.00;99.90;;;;;;5003045;28;20623;-47
2023/01/17 01:40:29;;;;;;;0.13;0.13;;;1.00;99.90;;;;;;5005624;28;20223;-48
2023/01/17 01:42:59;;;;;;;0.10;0.10;;;0.90;99.90;;;;;;5012914;28;20200;-47
2023/01/17 01:45:28;;;;;;;0.10;0.10;;;0.90;99.90;;;;;;5010590;28;20202;-48
2023/01/17 01:47:58;;;;;;;2.30;0.20;;;0.80;99.90;;;;;;5008823;28;20578;-49
2023/01/17 01:50:25;;;;;;;0.63;0.10;;;0.80;99.90;;;;;;5003789;28;20756;-49
2023/01/17 01:52:55;;;;;;;0.97;0.10;;;0.80;99.90;;;;;;5007391;28;20669;-47
2023/01/17 01:55:26;;;;;;;1.47;0.20;;;0.80;99.90;;;;;;5005080;28;20307;-47
2023/01/17 01:57:57;;;;;;;0.10;0.10;;;0.80;99.90;;;;;;5010271;28;20214;-47
2023/01/17 02:00:30;;;;;;;0.10;0.10;;;0.70;99.90;;;;;;5005131;28;20281;-48
2023/01/17 02:03:01;;;;;;;0.20;0.20;;;0.70;99.90;;;;;;5006652;28;20199;-48
2023/01/17 02:05:29;;;;;;;0.20;0.20;;;0.70;99.90;;;;;;5004397;28;20192;-50
2023/01/17 02:08:02;;;;;;;0.20;0.20;;;0.70;99.90;;;;;;5004163;28;20196;-49
2023/01/17 02:10:32;;;;;;;0.20;0.20;;;0.70;99.90;;;;;;5010372;28;20278;-49
2023/01/17 02:13:01;;;;;;;0.20;0.20;;;0.70;99.90;;;;;;5007009;28;20710;-48
2023/01/17 02:15:32;;;;;;;0.20;0.20;;;0.70;99.90;;;;;;4992384;28;20221;-50
2023/01/17 02:18:10;;;;;;;0.67;0.30;;;0.70;99.90;;;;;;5005878;28;20204;-48
2023/01/17 02:21:06;;;;;;;0.20;0.20;;;0.60;99.90;;;;;;5009376;28;20223;-48
2023/01/17 02:24:11;;;;;;;0.30;0.30;;;0.70;99.90;;;;;;5000769;28;20204;-49
2023/01/17 02:26:59;;;;;;;0.23;0.23;;;0.60;99.90;;;;;;5007030;28;20559;-49
2023/01/17 02:30:12;;;;;;;0.40;0.40;;;0.60;99.90;;;;;;4995572;28;20221;-49
2023/01/17 02:32:59;;;;;;;1.80;0.93;;;0.60;99.90;;;;;;5001148;28;20234;-48
2023/01/17 02:35:33;;;;;;;0.60;0.60;;;0.60;99.90;;;;;;5009191;28;20273;-47
2023/01/17 02:38:07;;;;;;;1.40;1.40;;;0.60;99.90;;;;;;5009830;28;21112;-49
2023/01/17 02:40:39;;;;;;;0.33;0.30;;;0.60;99.90;;;;;;5004068;28;20228;-50
2023/01/17 02:43:10;;;;;;;1.60;0.50;;;0.70;99.90;;;;;;4997461;28;20204;-48
2023/01/17 02:45:37;;;;;;;0.70;0.70;;;0.80;99.90;;;;;;5006691;28;20268;-49
2023/01/17 02:48:08;;;;;;;0.67;0.67;;;0.80;99.90;;;;;;5011094;28;20613;-49
2023/01/17 02:51:00;;;;;;;2.10;1.10;;;0.70;99.90;;;;;;5007116;28;20226;-48
2023/01/17 02:53:36;;;;;;;1.43;1.40;;;0.70;99.90;;;;;;5006026;28;20200;-49
2023/01/17 02:56:10;;;;;;;2.17;1.43;;;0.70;99.90;;;;;;5001444;28;20223;-47
2023/01/17 02:58:52;;;;;;;0.77;0.30;;;0.60;99.90;;;;;;5010853;28;20216;-48
2023/01/17 03:01:28;;;;;;;0.30;0.30;;;0.50;99.90;;;;;;5006323;28;20203;-49
2023/01/17 03:04:03;;;;;;;0.50;0.50;;;0.60;99.90;;;;;;5000030;28;20236;-48
2023/01/17 03:06:35;;;;;;;2.97;1.50;;;0.50;99.90;;;;;;4993667;28;20264;-48
2023/01/17 03:09:03;;;;;;;0.47;0.47;;;0.50;99.90;;;;;;5004018;28;20274;-48
2023/01/17 03:11:30;;;;;;;0.40;0.40;;;0.40;99.90;;;;;;5007277;28;20256;-47
2023/01/17 03:13:57;;;;;;;0.30;0.30;;;0.40;99.90;;;;;;4999881;28;20278;-49
2023/01/17 03:16:28;;;;;;;0.70;0.37;;;0.40;99.90;;;;;;4994216;28;20741;-47
2023/01/17 03:18:56;;;;;;;0.67;0.67;;;0.40;99.90;;;;;;5002162;28;20583;-49
2023/01/17 03:21:24;;;;;;;0.30;0.30;;;0.50;99.90;;;;;;5006125;28;20215;-48
2023/01/17 03:23:51;;;;;;;1.10;0.33;;;0.50;99.90;;;;;;4997160;28;21742;-49
2023/01/17 03:26:18;;;;;;;0.50;0.50;;;0.50;99.90;;;;;;5010263;28;20199;-49
2023/01/17 03:28:45;;;;;;;5.13;4.83;;;0.40;99.90;;;;;;5009179;28;20276;-49
2023/01/17 03:31:14;;;;;;;3.03;2.83;;;0.40;99.90;;;;;;5005486;28;20200;-47
2023/01/17 03:33:42;;;;;;;5.77;5.27;;;0.30;99.90;;;;;;5002333;28;20212;-49
2023/01/17 03:36:11;;;;;;;0.63;0.63;;;0.40;99.90;;;;;;4999544;28;20220;-48
2023/01/17 03:38:38;;;;;;;0.40;0.40;;;0.30;99.90;;;;;;5001147;28;20211;-47
2023/01/17 03:41:05;;;;;;;2.43;2.33;;;0.30;99.90;;;;;;5002842;28;20205;-46
2023/01/17 03:43:33;;;;;;;1.07;0.90;;;0.30;99.90;;;;;;4999022;28;20204;-47
2023/01/17 03:46:03;;;;;;;1.73;1.57;;;0.30;99.90;;;;;;4999911;28;20198;-47
2023/01/17 03:48:30;;;;;;;1.70;1.17;;;0.30;99.90;;;;;;5002718;28;20207;-47
2023/01/17 03:50:57;;;;;;;0.60;0.60;;;0.40;99.90;;;;;;5000314;28;20888;-47
2023/01/17 03:53:26;;;;;;;2.73;0.93;;;0.40;99.90;;;;;;5003406;28;20259;-47
2023/01/17 03:55:53;;;;;;;0.70;0.70;;;0.30;99.90;;;;;;5003721;28;20216;-46
2023/01/17 03:58:20;;;;;;;3.13;2.83;;;0.30;99.90;;;;;;5006599;28;20209;-47
2023/01/17 04:00:47;;;;;;;1.30;1.20;;;0.30;99.90;;;;;;5011848;28;20235;-46
2023/01/17 04:03:13;;;;;;;1.80;1.70;;;0.30;99.90;;;;;;5001513;28;20211;-47
2023/01/17 04:05:40;;;;;;;1.73;1.20;;;0.30;99.90;;;;;;5003286;28;20205;-47
2023/01/17 04:08:07;;;;;;;0.53;0.30;;;0.30;99.90;;;;;;5001784;28;20247;-48
2023/01/17 04:10:36;;;;;;;1.37;0.50;;;0.40;99.90;;;;;;5003143;28;20280;-47
2023/01/17 04:13:03;;;;;;;3.03;2.77;;;0.40;99.90;;;;;;5004966;28;20262;-48
2023/01/17 04:15:30;;;;;;;0.50;0.50;;;0.40;99.90;;;;;;5013825;28;20310;-47
2023/01/17 04:17:57;;;;;;;0.97;0.47;;;0.40;99.90;;;;;;5005536;28;20288;-47
2023/01/17 04:20:32;;;;;;;0.60;0.60;;;0.40;99.90;;;;;;5006391;28;20748;-47
2023/01/17 04:22:59;;;;;;;1.80;0.60;;;0.40;99.90;;;;;;5002674;28;20696;-46
2023/01/17 04:25:26;;;;;;;0.47;0.33;;;0.40;99.90;;;;;;5010087;28;20676;-47
2023/01/17 04:27:54;;;;;;;0.77;0.70;;;0.40;99.90;;;;;;4995405;28;20259;-46
2023/01/17 04:30:22;;;;;;;0.77;0.77;;;0.40;99.90;;;;;;5002204;28;20316;-47
2023/01/17 04:32:49;;;;;;;2.27;0.60;;;0.30;99.90;;;;;;5010441;28;20748;-47
2023/01/17 04:35:16;;;;;;;2.40;1.17;;;0.20;99.90;;;;;;5004310;28;20270;-47
2023/01/17 04:37:43;;;;;;;2.17;0.50;;;0.20;99.90;;;;;;5010968;28;20291;-46
2023/01/17 04:40:11;;;;;;;1.60;0.70;;;0.20;99.90;;;;;;5008120;28;20271;-47
2023/01/17 04:42:39;;;;;;;3.80;0.97;;;0.10;99.90;;;;;;5010888;28;20199;-47
2023/01/17 04:45:08;;;;;;;1.17;1.17;;;0.10;99.90;;;;;;5001465;28;20206;-47
2023/01/17 04:47:35;;;;;;;2.33;0.93;;;0.10;99.90;;;;;;5010159;28;20249;-47
2023/01/17 04:50:02;;;;;;;3.67;2.30;;;0.10;99.90;;;;;;5009759;28;20282;-47
2023/01/17 04:52:29;;;;;;;1.87;1.43;;;0.00;99.90;;;;;;5007383;28;20216;-47
2023/01/17 04:54:56;;;;;;;1.97;0.83;;;0.00;99.90;;;;;;5005662;28;20199;-47
2023/01/17 04:57:23;;;;;;;0.70;0.70;;;0.00;99.90;;;;;;5006059;28;20723;-46
2023/01/17 04:59:52;;;;;;;0.87;0.57;;;-0.10;99.90;;;;;;5001501;28;20613;-48
2023/01/17 05:02:20;;;;;;;0.90;0.50;;;-0.10;99.90;;;;;;5006169;28;20288;-46
2023/01/17 05:04:47;;;;;;;0.50;0.50;;;-0.10;99.90;;;;;;5012438;28;20211;-47
2023/01/17 05:07:14;;;;;;;0.77;0.73;;;-0.10;99.90;;;;;;5007362;28;20197;-46
2023/01/17 05:09:42;;;;;;;2.10;0.50;;;0.00;99.90;;;;;;5010146;28;20289;-47
2023/01/17 05:12:13;;;;;;;0.93;0.60;;;0.00;99.90;;;;;;5005226;28;20647;-47
2023/01/17 05:14:40;;;;;;;1.73;0.50;;;0.10;99.90;;;;;;5013619;28;20205;-46
2023/01/17 05:17:07;;;;;;;2.30;0.60;;;0.10;99.90;;;;;;5004810;28;20224;-47
2023/01/17 05:19:35;;;;;;;2.67;0.50;;;0.10;99.90;;;;;;5002374;28;20255;-47
2023/01/17 05:22:13;;;;;;;2.03;0.77;;;0.10;99.90;;;;;;5013535;28;20266;-48
2023/01/17 05:24:40;;;;;;;7.63;4.13;;;0.10;99.90;;;;;;5014841;28;20622;-46
2023/01/17 05:27:11;;;;;;;3.73;2.50;;;0.10;99.90;;;;;;5008613;28;20302;-47
2023/01/17 05:29:38;;;;;;;5.13;2.40;;;0.10;99.90;;;;;;5005224;28;20727;-47
2023/01/17 05:32:06;;;;;;;3.53;1.53;;;0.10;99.90;;;;;;5001946;28;20202;-46
2023/01/17 05:34:35;;;;;;;3.17;2.53;;;0.10;99.90;;;;;;5004911;28;20286;-47
2023/01/17 05:37:02;;;;;;;2.53;2.33;;;0.10;99.90;;;;;;4999595;28;20233;-47
2023/01/17 05:39:29;;;;;;;1.83;1.73;;;0.10;99.90;;;;;;5009385;28;20228;-46
2023/01/17 05:41:57;;;;;;;5.10;4.60;;;0.10;99.90;;;;;;5000886;28;20197;-47
2023/01/17 05:44:26;;;;;;;5.23;3.50;;;0.00;99.90;;;;;;5011200;28;20294;-48
2023/01/17 05:46:53;;;;;;;3.30;2.77;;;0.00;99.90;;;;;;4999415;28;20269;-47
2023/01/17 05:49:20;;;;;;;4.30;2.77;;;0.00;99.90;;;;;;5001706;28;20294;-47
2023/01/17 05:51:48;;;;;;;4.13;3.87;;;-0.10;99.90;;;;;;4993643;28;20758;-46
2023/01/17 05:54:15;;;;;;;7.67;4.73;;;-0.10;99.90;;;;;;4993655;28;20223;-47
2023/01/17 05:56:42;;;;;;;5.57;4.40;;;-0.10;99.90;;;;;;5002839;28;20229;-47
2023/01/17 05:59:10;;;;;;;3.13;2.97;;;-0.10;99.90;;;;;;5008118;28;20737;-47
2023/01/17 06:01:36;;;;;;;2.97;2.83;;;-0.10;99.90;;;;;;5012542;28;20201;-46
2023/01/17 06:04:04;;;;;;;2.70;2.50;;;-0.20;99.90;;;;;;5012496;28;20192;-47
2023/01/17 06:06:30;;;;;;;2.17;1.97;;;-0.20;99.90;;;;;;5003582;28;20205;-47
2023/01/17 06:08:59;;;;;;;4.53;4.23;;;-0.20;99.90;;;;;;4992616;28;20686;-47
2023/01/17 06:11:26;;;;;;;4.83;2.97;;;-0.20;99.90;;;;;;4997572;28;20209;-46
2023/01/17 06:13:53;;;;;;;4.00;3.63;;;-0.10;99.90;;;;;;5000819;28;20586;-46
2023/01/17 06:16:20;;;;;;;5.47;3.30;;;-0.10;99.90;;;;;;5001643;28;20247;-47
2023/01/17 06:18:47;;;;;;;6.07;3.13;;;-0.10;99.90;;;;;;5000182;28;20206;-46
2023/01/17 06:21:14;;;;;;;6.23;3.40;;;-0.20;99.90;;;;;;4992550;28;20282;-46
2023/01/17 06:23:41;;;;;;;4.60;2.43;;;-0.30;99.90;;;;;;4992205;28;20266;-47
2023/01/17 06:26:10;;;;;;;2.07;1.80;;;-0.40;99.90;;;;;;4999249;28;20258;-47
2023/01/17 06:28:37;;;;;;;2.87;1.00;;;-0.40;99.90;;;;;;4999241;28;20208;-46
2023/01/17 06:31:07;;;;;;;1.23;1.23;;;-0.40;99.90;;;;;;5002213;28;20209;-47
2023/01/17 06:33:34;;;;;;;2.07;1.40;;;-0.40;99.90;;;;;;5002973;28;20203;-47
2023/01/17 06:36:01;;;;;;;3.43;3.23;;;-0.50;99.90;;;;;;5002688;28;20217;-47
2023/01/17 06:38:28;;;;;;;3.17;2.43;;;-0.60;99.90;;;;;;4995731;28;20206;-47
2023/01/17 06:40:59;;;;;;;2.83;2.63;;;-0.60;99.90;;;;;;4991867;28;20255;-47
2023/01/17 06:43:32;;;;;;;2.17;1.97;;;-0.60;99.90;;;;;;4996683;28;20261;-48
2023/01/17 06:45:59;;;;;;;1.50;1.40;;;-0.60;99.90;;;;;;4998652;28;20283;-46
2023/01/17 06:48:26;;;;;;;2.63;1.30;;;-0.60;99.90;;;;;;5002583;28;20210;-47
2023/01/17 06:50:53;;;;;;;3.07;2.43;;;-0.70;99.90;;;;;;5011648;28;20236;-47
2023/01/17 06:53:20;;;;;;;3.23;1.73;;;-0.70;99.90;;;;;;5004123;28;20243;-47
2023/01/17 06:55:47;;;;;;;3.43;1.83;;;-0.80;99.90;;;;;;5005550;28;20201;-47
2023/01/17 06:58:14;;;;;;;2.87;2.60;;;-0.80;99.90;;;;;;5001066;28;20774;-47
2023/01/17 07:00:43;;;;;;;6.60;3.47;;;-0.70;99.90;;;;;;4991625;28;20288;-47
2023/01/17 07:03:18;;;;;;;3.47;3.13;;;-0.80;99.90;;;;;;4997947;28;20211;-46
2023/01/17 07:05:45;;;;;;;4.77;3.47;;;-0.70;99.90;;;;;;4991566;28;20233;-47
2023/01/17 07:08:12;;;;;;;3.83;3.40;;;-0.70;99.90;;;;;;4997228;28;20280;-47
2023/01/17 07:10:39;;;;;;;5.47;3.40;;;-0.70;99.90;;;;;;5011196;28;20331;-47
2023/01/17 07:13:06;;;;;;;10.13;8.17;;;-0.70;99.90;;;;;;5004808;28;20263;-47
2023/01/17 07:15:33;;;;;;;7.60;4.23;;;-0.60;99.90;;;;;;4999344;28;20267;-47
2023/01/17 07:18:02;;;;;;;9.10;3.63;;;-0.60;99.90;;;;;;4998993;28;20706;-47
2023/01/17 07:20:29;;;;;;;5.03;2.80;;;-0.60;99.90;;;;;;5001198;28;20240;-47
2023/01/17 07:22:57;;;;;;;3.50;2.67;;;-0.50;99.90;;;;;;5003369;28;20202;-48
2023/01/17 07:25:24;;;;;;;3.73;2.70;;;-0.50;99.90;;;;;;5005893;28;20706;-47
2023/01/17 07:27:53;;;;;;;4.63;3.00;;;-0.40;99.90;;;;;;5004456;28;20209;-47
2023/01/17 07:30:21;;;;;;;2.33;1.80;;;-0.40;99.90;;;;;;4994297;28;20228;-47
2023/01/17 07:32:51;;;;;;;2.13;1.77;;;-0.40;99.90;;;;;;5004396;28;20204;-46
2023/01/17 07:35:20;;;;;;;5.27;2.37;;;-0.40;99.90;;;;;;5009596;28;20293;-47
2023/01/17 07:37:48;;;;;;;2.53;1.90;;;-0.30;99.90;;;;;;5003937;28;20694;-47
2023/01/17 07:40:16;;;;;;;3.60;2.37;;;-0.20;99.90;;;;;;4997854;28;20279;-46
2023/01/17 07:42:43;;;;;;;9.00;2.30;;;-0.10;99.90;;;;;;5007242;28;20204;-46
2023/01/17 07:45:12;;;;;;;2.90;2.57;;;0.10;99.90;;;;;;5002328;28;20290;-47
2023/01/17 07:47:39;;;;;;;5.80;3.20;;;0.20;99.90;;;;;;5003306;28;20205;-46
2023/01/17 07:50:07;;;;;;;6.93;3.57;;;0.20;99.90;;;;;;5005091;28;20222;-47
2023/01/17 07:52:36;;;;;;;7.87;4.27;;;0.30;99.90;;;;;;5011202;28;20641;-47
2023/01/17 07:55:03;;;;;;;5.50;4.10;;;0.30;99.90;;;;;;5005628;28;20204;-46
2023/01/17 07:57:31;;;;;;;4.13;3.00;;;0.30;99.90;;;;;;4999737;28;20223;-47
2023/01/17 07:59:58;;;;;;;5.50;3.73;;;0.30;99.90;;;;;;5002415;28;20345;-46
2023/01/17 08:02:25;;;;;;;4.83;4.07;;;0.30;99.90;;;;;;5010615;28;20221;-47
2023/01/17 08:04:52;;;;;;;10.60;5.07;;;0.40;99.90;;;;;;5006091;28;20349;-47
2023/01/17 08:07:19;;;;;;;7.10;4.67;;;0.40;99.90;;;;;;5002052;28;20201;-47
2023/01/17 08:09:48;;;;;;;5.67;3.53;;;0.40;99.90;;;;;;5000399;28;20223;-48
2023/01/17 08:12:16;;;;;;;7.87;3.63;;;0.40;99.90;;;;;;4997376;28;20610;-46
2023/01/17 08:14:43;;;;;;;3.03;2.67;;;0.40;99.90;;;;;;5000008;28;20253;-46
2023/01/17 08:17:13;;;;;;;2.50;2.37;;;0.40;99.90;;;;;;5010235;28;20261;-48
2023/01/17 08:19:40;;;;;;;2.60;2.40;;;0.40;99.90;;;;;;5009558;28;20598;-47
2023/01/17 08:22:08;;;;;;;3.13;2.00;;;0.30;99.90;;;;;;4991916;28;20205;-46
2023/01/17 08:24:36;;;;;;;2.87;2.60;;;0.30;99.90;;;;;;5007372;28;20673;-46
2023/01/17 08:27:04;;;;;;;3.47;3.20;;;0.40;99.90;;;;;;5010533;28;20227;-46
2023/01/17 08:29:31;;;;;;;2.90;2.57;;;0.40;99.90;;;;;;5010775;28;20231;-47
2023/01/17 08:31:58;;;;;;;8.37;4.50;;;0.40;99.90;;;;;;5010874;28;20208;-47
2023/01/17 08:34:26;;;;;;;8.57;4.33;;;0.50;99.90;;;;;;5011446;28;20212;-47
2023/01/17 08:36:52;;;;;;;4.80;3.77;;;0.60;99.90;;;;;;5013367;28;20727;-47
2023/01/17 08:39:20;;;;;;;6.67;4.20;;;0.60;99.90;;;;;;5006922;28;20269;-47
2023/01/17 08:41:47;;;;;;;3.77;3.30;;;0.70;99.90;;;;;;4998449;28;20665;-46
2023/01/17 08:44:15;;;;;;;3.57;3.10;;;0.80;99.90;;;;;;5012549;28;20204;-46
2023/01/17 08:46:42;;;;;;;5.70;3.50;;;0.80;99.90;;;;;;5008510;28;20664;-47
2023/01/17 08:49:11;;;;;;;6.87;4.07;;;0.80;99.90;;;;;;5002675;28;20726;-47
2023/01/17 08:51:38;;;;;;;5.03;3.20;;;0.80;99.90;;;;;;5003858;28;20280;-47
2023/01/17 08:54:05;;;;;;;2.97;2.77;;;0.80;99.90;;;;;;5007892;28;20218;-48
2023/01/17 08:56:32;;;;;;;3.03;2.63;;;0.90;99.90;;;;;;4989959;28;20205;-47
2023/01/17 08:59:00;;;;;;;4.60;3.63;;;0.90;99.90;;;;;;5002710;28;20459;-46
2023/01/17 09:01:29;;;;;;;3.03;2.83;;;1.00;99.90;;;;;;5008267;28;20212;-47
2023/01/17 09:03:56;;;;;;;3.87;2.17;;;1.00;99.90;;;;;;5002595;28;20231;-46
2023/01/17 09:06:23;;;;;;;3.80;2.53;;;1.10;99.90;;;;;;4998643;28;20251;-46
2023/01/17 09:08:53;;;;;;;4.07;2.20;;;1.20;99.90;;;;;;5012436;28;20283;-47
2023/01/17 09:11:20;;;;;;;3.47;3.17;;;1.20;99.90;;;;;;5012899;28;20232;-46
2023/01/17 09:13:47;;;;;;;3.50;3.20;;;1.20;99.90;;;;;;5010125;28;20220;-46
2023/01/17 09:16:14;;;;;;;6.10;3.13;;;1.20;99.90;;;;;;5002955;28;20643;-48
2023/01/17 09:18:43;;;;;;;3.27;2.93;;;1.20;99.90;;;;;;5002829;28;20223;-47
2023/01/17 09:21:11;;;;;;;3.57;3.37;;;1.30;99.90;;;;;;5006174;28;20810;-47
2023/01/17 09:23:38;;;;;;;3.37;3.03;;;1.20;99.90;;;;;;5011669;28;20207;-46
2023/01/17 09:26:05;;;;;;;3.63;3.33;;;1.30;99.90;;;;;;5002822;28;20205;-47
2023/01/17 09:28:39;;;;;;;4.13;3.30;;;1.40;99.90;;;;;;5007211;28;20209;-46
2023/01/17 09:31:07;;;;;;;4.53;3.97;;;1.40;99.90;;;;;;5007900;28;20215;-47
2023/01/17 09:33:34;;;;;;;9.33;5.07;;;1.40;99.90;;;;;;4996899;28;20673;-47
2023/01/17 09:36:04;;;;;;;5.80;4.50;;;1.40;99.90;;;;;;5001269;28;20201;-47
2023/01/17 09:38:31;;;;;;;4.10;3.70;;;1.40;99.90;;;;;;5013293;28;20235;-47
2023/01/17 09:40:58;;;;;;;4.13;3.63;;;1.50;99.90;;;;;;5012789;28;20654;-47
2023/01/17 09:43:36;;;;;;;5.73;4.27;;;1.60;99.90;;;;;;4997365;28;20638;-46
2023/01/17 09:46:04;;;;;;;6.13;4.07;;;1.70;99.90;;;;;;5005301;28;20285;-47
2023/01/17 09:48:37;;;;;;;4.83;4.40;;;1.80;99.90;;;;;;5012924;28;20263;-47
2023/01/17 09:51:13;;;;;;;5.87;4.40;;;1.90;99.90;;;;;;5012939;28;20276;-46
2023/01/17 09:53:42;;;;;;;4.40;4.00;;;1.90;99.90;;;;;;5013126;28;20277;-47
2023/01/17 09:56:12;;;;;;;6.13;4.93;;;2.00;99.90;;;;;;5012661;28;20208;-46
2023/01/17 09:58:46;;;;;;;4.70;4.30;;;2.10;99.90;;;;;;5012519;28;20697;-46
2023/01/17 10:01:18;;;;;;;4.30;4.00;;;2.10;99.90;;;;;;4999936;28;20204;-46
2023/01/17 10:04:09;;;;;;;14.73;8.67;;;2.10;99.90;;;;;;5003186;28;20259;-47
2023/01/17 10:06:51;;;;;;;24.63;11.93;;;2.20;99.90;;;;;;4992925;28;20210;-46
2023/01/17 10:09:33;;;;;;;20.93;8.67;;;2.20;99.90;;;;;;5008972;28;20263;-47
2023/01/17 10:12:17;;;;;;;6.50;3.20;;;2.10;99.90;;;;;;5012290;28;20286;-46
2023/01/17 10:15:17;;;;;;;4.27;3.07;;;2.10;99.90;;;;;;5012179;28;20298;-47
2023/01/17 10:17:53;;;;;;;4.07;3.00;;;2.10;99.90;;;;;;4986403;28;20227;-47
2023/01/17 10:20:43;;;;;;;3.83;2.73;;;2.00;99.90;;;;;;5003864;28;20232;-46
2023/01/17 10:23:46;;;;;;;4.43;2.97;;;2.10;99.90;;;;;;5008124;28;20559;-47
2023/01/17 10:26:17;;;;;;;4.87;2.70;;;2.20;99.90;;;;;;4994559;28;20675;-47
2023/01/17 10:28:47;;;;;;;4.67;3.47;;;2.20;99.90;;;;;;5010779;28;20682;-47
2023/01/17 10:31:20;;;;;;;6.50;4.53;;;2.20;99.90;;;;;;4999295;28;20199;-46
2023/01/17 10:33:50;;;;;;;4.97;4.30;;;2.20;99.90;;;;;;4993455;28;20309;-47
2023/01/17 10:36:20;;;;;;;4.57;3.90;;;2.10;99.90;;;;;;4995277;28;20283;-46
2023/01/17 10:38:51;;;;;;;3.13;2.77;;;2.10;99.90;;;;;;5004755;28;20637;-46
2023/01/17 10:41:25;;;;;;;3.00;2.67;;;2.10;99.90;;;;;;5003613;28;20287;-47
2023/01/17 10:44:06;;;;;;;5.07;3.10;;;2.10;99.90;;;;;;5006374;28;20294;-46
2023/01/17 10:46:40;;;;;;;3.93;3.63;;;2.10;99.90;;;;;;4995876;28;20254;-46
2023/01/17 10:49:16;;;;;;;3.57;3.27;;;2.10;99.90;;;;;;5007290;28;20774;-47
2023/01/17 10:52:01;;;;;;;3.27;2.97;;;2.10;99.90;;;;;;5009510;28;20246;-48
2023/01/17 10:54:53;;;;;;;3.30;3.00;;;2.10;99.90;;;;;;5005590;28;20294;-46
2023/01/17 10:57:22;;;;;;;4.27;3.10;;;2.20;99.90;;;;;;4999570;28;20267;-47
2023/01/17 10:59:49;;;;;;;3.10;2.73;;;2.20;99.90;;;;;;5006621;28;20231;-47
2023/01/17 11:02:23;;;;;;;3.00;2.73;;;2.20;99.90;;;;;;4999944;28;20652;-47
2023/01/17 11:04:53;;;;;;;4.83;2.67;;;2.30;99.90;;;;;;4999002;28;20275;-47
2023/01/17 11:07:22;;;;;;;2.93;2.37;;;2.20;99.90;;;;;;4996578;28;20209;-47
2023/01/17 11:09:52;;;;;;;3.53;3.20;;;2.20;99.90;;;;;;5002242;28;20289;-47
2023/01/17 11:12:24;;;;;;;2.17;2.07;;;2.30;99.90;;;;;;4997679;28;20245;-46
2023/01/17 11:15:04;;;;;;;5.43;2.83;;;2.30;99.90;;;;;;5005021;28;20271;-47
2023/01/17 11:17:32;;;;;;;3.07;2.43;;;2.30;99.90;;;;;;4997084;28;20209;-47
2023/01/17 11:20:15;;;;;;;3.57;2.43;;;2.40;99.90;;;;;;5004569;28;20227;-48
2023/01/17 11:22:46;;;;;;;3.87;2.70;;;2.30;99.90;;;;;;5006607;28;21313;-47
2023/01/17 11:25:22;;;;;;;4.07;3.73;;;2.30;99.90;;;;;;5005750;28;20207;-47
2023/01/17 11:27:59;;;;;;;4.10;3.80;;;2.40;99.90;;;;;;4998772;28;20214;-47
2023/01/17 11:30:28;;;;;;;6.40;4.37;;;2.50;99.90;;;;;;4998509;28;20228;-47
2023/01/17 11:32:57;;;;;;;3.83;3.50;;;2.60;99.90;;;;;;5002643;28;20577;-47
2023/01/17 11:35:27;;;;;;;4.23;3.83;;;2.70;99.90;;;;;;5008483;28;20207;-47
2023/01/17 11:38:03;;;;;;;3.17;2.90;;;2.60;99.90;;;;;;4998524;28;20218;-47
2023/01/17 11:40:36;;;;;;;3.20;2.90;;;2.70;99.90;;;;;;4999239;28;20278;-46
2023/01/17 11:43:18;;;;;;;3.97;2.70;;;2.70;99.90;;;;;;4994816;28;20212;-47
2023/01/17 11:45:46;;;;;;;5.83;3.17;;;2.80;99.90;;;;;;5001445;28;20982;-46
2023/01/17 11:48:16;;;;;;;4.00;2.77;;;2.80;99.90;;;;;;4996605;28;20197;-47
2023/01/17 11:50:46;;;;;;;4.90;3.40;;;2.80;99.90;;;;;;5004434;28;20228;-46
2023/01/17 11:53:24;;;;;;;4.47;2.67;;;2.80;99.90;;;;;;4997166;28;20295;-46
2023/01/17 11:56:04;;;;;;;4.03;3.22;;;2.80;99.90;;;;;;4995780;28;20458;-46
2023/01/17 11:58:34;;;;;;;4.77;4.37;;;2.80;99.90;;;;;;5000910;28;20216;-47
2023/01/17 12:01:11;;;;;;;4.47;3.23;;;2.80;99.90;;;;;;4994835;28;20282;-48
2023/01/17 12:04:06;;;;;;;6.67;4.00;;;2.80;99.90;;;;;;5006467;28;20205;-47
2023/01/17 12:06:43;;;;;;;3.20;2.90;;;2.80;99.90;;;;;;4993841;28;20207;-47
2023/01/17 12:09:21;;;;;;;5.23;2.87;;;2.90;99.90;;;;;;5011046;28;20220;-48
2023/01/17 12:14:53;;;;;;;3.27;2.83;;;2.90;99.90;;;;;;5004781;28;20722;-47
2023/01/17 12:17:37;;;;;;;5.17;3.07;;;2.90;99.90;;;;;;5014525;28;20208;-47
2023/01/17 12:20:11;;;;;;;6.70;3.73;;;2.90;99.90;;;;;;4996769;28;20683;-47
2023/01/17 12:22:54;;;;;;;2.97;2.73;;;2.90;99.90;;;;;;5011545;28;20304;-48
2023/01/17 12:25:29;;;;;;;3.97;2.10;;;2.90;99.90;;;;;;5005628;28;20204;-46
2023/01/17 12:28:11;;;;;;;8.00;2.67;;;3.00;99.90;;;;;;4995207;28;20621;-46
2023/01/17 12:30:48;;;;;;;1.70;1.60;;;3.10;99.90;;;;;;5001079;28;20232;-47
2023/01/17 12:33:24;;;;;;;2.63;2.43;;;3.10;99.90;;;;;;5007494;28;20284;-47
2023/01/17 12:35:54;;;;;;;2.93;2.63;;;3.10;99.90;;;;;;4997800;28;20213;-47
2023/01/17 12:38:29;;;;;;;4.47;2.43;;;3.20;99.90;;;;;;5006861;28;20279;-48
2023/01/17 12:41:02;;;;;;;4.97;3.00;;;3.20;99.90;;;;;;5004254;28;20791;-47
2023/01/17 12:43:35;;;;;;;4.03;3.00;;;3.20;99.90;;;;;;5008305;28;20213;-48
2023/01/17 12:46:08;;;;;;;4.20;3.17;;;3.30;99.90;;;;;;4998151;28;20224;-46
2023/01/17 12:48:38;;;;;;;2.87;2.67;;;3.40;99.90;;;;;;5000236;28;20206;-47
2023/01/17 12:51:13;;;;;;;5.73;3.57;;;3.50;99.90;;;;;;4999297;28;20228;-46
2023/01/17 12:53:46;;;;;;;3.50;3.27;;;3.60;99.90;;;;;;5001872;28;20211;-47
2023/01/17 12:56:21;;;;;;;5.80;3.33;;;3.80;99.90;;;;;;5000016;28;20274;-46
2023/01/17 12:58:54;;;;;;;5.90;3.27;;;4.00;99.90;;;;;;4998893;28;20236;-47
2023/01/17 13:01:28;;;;;;;6.93;3.80;;;4.00;99.90;;;;;;5004562;28;21845;-46
2023/01/17 13:04:03;;;;;;;5.37;2.90;;;4.00;99.90;;;;;;5002539;28;20547;-47
2023/01/17 13:06:42;;;;;;;4.30;3.50;;;4.10;99.90;;;;;;5000860;28;20231;-47
2023/01/17 13:09:13;;;;;;;7.13;3.03;;;4.10;99.90;;;;;;5006740;28;20272;-47
2023/01/17 13:11:48;;;;;;;2.80;2.60;;;4.00;99.90;;;;;;4999961;28;20205;-47
2023/01/17 13:14:16;;;;;;;10.53;2.97;;;4.00;99.90;;;;;;5003235;28;20228;-47
2023/01/17 13:16:49;;;;;;;5.27;2.93;;;4.00;99.90;;;;;;5004813;28;20200;-47
2023/01/17 13:19:23;;;;;;;4.37;3.37;;;3.90;99.90;;;;;;5001784;28;20236;-47
2023/01/17 13:21:51;;;;;;;5.50;3.20;;;3.90;99.90;;;;;;4995192;28;20269;-47
2023/01/17 13:24:38;;;;;;;8.20;3.67;;;3.80;99.90;;;;;;5002732;28;20256;-47
2023/01/17 13:27:27;;;;;;;3.23;2.80;;;3.80;99.90;;;;;;5008288;28;20205;-46
2023/01/17 13:30:21;;;;;;;18.53;2.87;;;3.80;99.90;;;;;;5008722;28;20216;-47
2023/01/17 13:33:26;;;;;;;2.43;1.60;;;3.80;99.90;;;;;;5009312;28;20205;-48
2023/01/17 13:36:08;;;;;;;2.47;1.93;;;4.00;99.90;;;;;;5012984;28;20629;-47
2023/01/17 13:38:53;;;;;;;2.07;1.67;;;4.10;99.90;;;;;;5005147;28;20295;-47
2023/01/17 13:41:42;;;;;;;5.90;2.23;;;4.20;99.90;;;;;;5006047;28;20550;-47
2023/01/17 13:44:23;;;;;;;2.90;2.37;;;4.20;99.90;;;;;;5008902;28;22052;-48
2023/01/17 13:47:00;;;;;;;5.17;2.40;;;4.10;99.90;;;;;;5001076;28;22099;-46
2023/01/17 13:49:35;;;;;;;3.33;2.67;;;4.20;99.90;;;;;;4993341;28;20300;-47
2023/01/17 13:52:09;;;;;;;3.50;2.27;;;4.20;99.90;;;;;;4996507;28;20734;-47
2023/01/17 13:54:44;;;;;;;6.03;3.13;;;4.20;99.90;;;;;;5010056;28;20216;-47
2023/01/17 13:57:38;;;;;;;4.53;3.10;;;4.20;99.90;;;;;;5007085;28;20206;-47
2023/01/17 14:00:49;;;;;;;5.60;2.40;;;4.10;99.90;;;;;;4998382;28;20251;-47
2023/01/17 14:03:56;;;;;;;6.03;3.23;;;3.90;99.90;;;;;;4972314;28;20359;-47
2023/01/17 14:06:34;;;;;;;3.00;2.70;;;3.90;99.90;;;;;;4993038;28;20200;-47
2023/01/17 14:09:03;;;;;;;4.50;2.57;;;3.80;99.90;;;;;;5001645;28;20196;-47
2023/01/17 14:11:33;;;;;;;6.30;3.77;;;3.80;99.90;;;;;;4996647;28;20200;-47
2023/01/17 14:14:35;;;;;;;4.40;3.57;;;3.80;99.90;;;;;;4993157;28;20298;-47
2023/01/17 14:17:48;;;;;;;3.30;3.00;;;3.80;99.90;;;;;;4996044;28;20264;-47
2023/01/17 14:20:51;;;;;;;4.70;2.73;;;3.80;99.90;;;;;;5003651;28;20224;-47
2023/01/17 14:23:49;;;;;;;8.20;2.40;;;3.90;99.90;;;;;;5012420;28;20291;-47
2023/01/17 14:26:26;;;;;;;4.17;1.97;;;3.90;99.90;;;;;;5011375;28;20213;-46
2023/01/17 14:28:53;;;;;;;4.37;2.90;;;3.90;99.90;;;;;;5001851;28;20240;-47
2023/01/17 14:31:22;;;;;;;2.10;1.87;;;3.90;99.90;;;;;;4997031;28;20210;-47
2023/01/17 14:33:49;;;;;;;4.67;3.33;;;3.90;99.90;;;;;;5005730;28;20292;-47
2023/01/17 14:36:25;;;;;;;3.90;2.87;;;3.80;99.90;;;;;;5007823;28;20304;-48
2023/01/17 14:38:52;;;;;;;3.90;2.70;;;3.90;99.90;;;;;;5000572;28;20221;-47
2023/01/17 14:41:22;;;;;;;4.50;3.00;;;3.80;99.90;;;;;;4992859;28;20209;-47